Skip to content.

Chatham Islands

  

Waitangi - WCI

Logged in to unit HSN11475 as: Guest
(Last data received Wed 21 Feb 2018 09:15:00 - 49 seconds ago)

Weather FWI Graphs Forecast Hourly FWI Daily FWI Download FWI Data

Hourly FWI Logs | Period From 08:30 20/02/2018 to 08:30 21/02/2018

Change the DoC% for the 24hr period starting 12:00pm 20/2/2018 to

If the date above is the current day, then all future logs will inherit this value until such time as it is changed again. If you wish to change historic values you can do so by going back to the day you want to alter (navigate via the graphs) and change the DoC% there (however this will only affect that day).

WindRainHourly FWIsDaily FWIsForestGrassScrub
DateTime (NZST)Temp (C)RH (%)Dir (deg)Speed (km/h)Hourly (mm)Daily (mm)FFMCISIHFWIFFMCDMCDCISIBUIFWIDSRROS (m/h)FFI (kW/m)FFDCDoC (%)ROS (m/h)GFI (kW/m)GFDCROS (m/h)SFI (kW/m)SFDC
21/02/2018 0700 19.4 98.0 335 36.5 0.0 25.7 0.0 0.0 0 0 L 0 0 0 L 0 1 L
21/02/2018 0600 19.0 99.0 335 45.0 0.0 25.0 0.0 0.0 0 0 L 0 0 0 L 0 1 L
21/02/2018 0500 19.1 99.0 337 50.0 0.2 24.7 0.0 0.0 0 0 L 0 0 0 L 0 1 L
21/02/2018 0400 19.1 98.0 354 43.2 0.2 25.4 0.0 0.0 0 0 L 0 0 0 L 0 2 L
21/02/2018 0300 19.6 97.0 6 39.6 0.0 25.9 0.0 0.0 0 0 L 0 0 0 L 0 1 L
21/02/2018 0200 19.6 98.0 357 37.4 0.0 24.9 0.0 0.0 0 0 L 0 0 0 L 0 1 L
21/02/2018 0100 19.4 100.0 354 34.6 0.0 24.2 0.0 0.0 0 0 L 0 0 0 L 0 0 L
21/02/2018 0000 16.4 100.0 137 18.0 0.8 24.2 0.0 0.0 0 0 L 0 0 0 L 0 0 L
20/02/2018 2300 15.4 100.0 119 28.8 0.4 29.2 0.0 0.0 0 0 L 0 0 0 L 0 2 L
20/02/2018 2200 14.9 100.0 107 36.0 0.4 32.1 0.0 0.0 0 0 L 0 0 0 L 1 11 M
20/02/2018 2100 14.8 100.0 102 39.1 0.6 35.3 0.1 0.1 0 0 L 0 0 0 L 4 44 M
20/02/2018 2000 14.7 100.0 113 39.6 0.2 40.8 0.3 0.2 1 0 L 0 0 0 L 25 249 M
20/02/2018 1900 13.9 99.0 120 36.5 0.0 42.9 0.4 0.2 1 0 L 0 0 0 L 34 335 M
20/02/2018 1800 13.7 99.0 128 30.6 1.0 42.7 0.3 0.2 1 0 L 0 0 0 L 21 206 M
20/02/2018 1700 13.9 98.0 129 33.8 0.4 54.9 1.5 0.9 15 3 L 0 0 0 L 261 2607 V
20/02/2018 1600 14.5 95.0 127 27.4 0.2 60.7 1.7 1.1 17 3 L 0 0 0 L 305 3049 V
20/02/2018 1500 15.2 94.0 124 22.9 0.8 63.5 1.6 0.9 15 3 L 0 0 0 L 273 2729 V
20/02/2018 1400 16.1 89.0 119 22.1 0.0 78.7 3.1 3.1 43 8 L 0 0 0 L 664 6642 E
20/02/2018 1300 17.7 83.0 131 22.5 0.0 78.7 3.1 3.2 45 8 L 0 0 0 L 684 6838 E
20/02/2018 1200 18.8 75.0 130 19.4 0.0 0.0 78.6 2.6 2.6 81.7 5.1 376.1 3.6 9.9 3.8 0.3 34 6 L 0 0 0 L 546 5455 E
20/02/2018 1100 19.0 77.0 111 14.4 0.0 78.1 2.0 1.3 17 2 L 0 0 0 L 369 3693 V
20/02/2018 1000 18.8 80.0 149 11.3 0.0 77.6 1.6 0.9 12 1 L 0 0 0 L 283 2828 V
20/02/2018 0900 18.4 81.0 159 12.6 0.0 77.3 1.7 0.9 13 1 L 0 0 0 L 299 2994 V
20/02/2018 0800 18.3 85.0 158 7.2 0.0 77.0 1.2 0.7 8 1 L 0 0 0 L 198 1978 H